Time;durP1;ratioP1;P1;durP2;ratioP2;P2;SDS_P1;SDS_P2;PMS_P1;PMS_P2;Temp;Humidity;BMP_temperature;BMP_pressure;BME280_temperature;BME280_humidity;BME280_pressure;Samples;Min_cycle;Max_cycle;Signal;HPM_P1;HPM_P2
2022/06/04 00:00:33;;;;;;;3.83;3.45;;;12.40;99.90;;;;;;4978537;28;20146;-87
2022/06/04 00:02:59;;;;;;;3.83;3.25;;;12.40;99.90;;;;;;4965381;28;20786;-86
2022/06/04 00:05:27;;;;;;;2.85;2.65;;;12.40;99.90;;;;;;4963112;28;20085;-86
2022/06/04 00:07:54;;;;;;;7.85;3.25;;;12.40;99.90;;;;;;4979602;28;20054;-86
2022/06/04 00:16:07;;;;;;;6.55;4.13;;;12.30;99.90;;;;;;4972810;28;20142;-87
2022/06/04 00:18:33;;;;;;;3.67;3.05;;;12.30;99.90;;;;;;4964615;28;20043;-87
2022/06/04 00:20:59;;;;;;;2.92;2.72;;;12.30;99.90;;;;;;4965057;28;20061;-87
2022/06/04 00:23:26;;;;;;;4.30;3.05;;;12.30;99.90;;;;;;4964343;28;20057;-87
2022/06/04 00:25:54;;;;;;;5.43;3.38;;;12.30;99.90;;;;;;4964804;28;20047;-87
2022/06/04 00:28:22;;;;;;;4.45;3.20;;;12.30;99.90;;;;;;4964373;28;20594;-89
2022/06/04 00:30:48;;;;;;;11.65;3.85;;;12.30;99.90;;;;;;4963465;28;20457;-88
2022/06/04 00:33:16;;;;;;;5.10;3.20;;;12.30;99.90;;;;;;4964415;28;20047;-87
2022/06/04 00:35:43;;;;;;;6.93;3.40;;;12.30;99.90;;;;;;4964245;28;20130;-86
2022/06/04 00:38:08;;;;;;;9.50;4.20;;;12.20;99.90;;;;;;4963896;28;20082;-87
2022/06/04 00:40:55;;;;;;;6.32;3.10;;;12.30;99.90;;;;;;4964347;28;20121;-87
2022/06/04 00:43:22;;;;;;;10.80;2.85;;;12.20;99.90;;;;;;4964099;28;20397;-86
2022/06/04 00:46:18;;;;;;;9.43;3.60;;;12.20;99.90;;;;;;4963278;28;20374;-87
2022/06/04 00:48:44;;;;;;;6.20;2.80;;;12.30;99.90;;;;;;4963054;28;20042;-86
2022/06/04 00:51:10;;;;;;;5.60;3.25;;;12.20;99.90;;;;;;4963816;28;20039;-88
2022/06/04 00:53:37;;;;;;;4.80;3.38;;;12.20;99.90;;;;;;4964237;28;20408;-86
2022/06/04 00:56:18;;;;;;;6.50;4.07;;;12.20;99.90;;;;;;4963454;28;20492;-88
2022/06/04 00:58:53;;;;;;;6.20;3.38;;;12.20;99.90;;;;;;4963912;28;20046;-88
2022/06/04 01:01:30;;;;;;;5.75;2.92;;;12.20;99.90;;;;;;4962982;28;20418;-87
2022/06/04 01:04:13;;;;;;;6.28;2.15;;;12.20;99.90;;;;;;4946807;28;20039;-88
2022/06/04 01:06:48;;;;;;;3.92;3.25;;;12.10;99.90;;;;;;4962846;28;20058;-86
2022/06/04 01:09:36;;;;;;;5.97;3.08;;;12.10;99.90;;;;;;4963038;28;20086;-88
2022/06/04 01:12:11;;;;;;;3.38;2.67;;;12.10;99.90;;;;;;4963044;28;20497;-86
2022/06/04 01:14:43;;;;;;;2.58;2.38;;;12.10;99.90;;;;;;4963951;28;20039;-87
2022/06/04 01:17:18;;;;;;;4.03;2.93;;;12.10;99.90;;;;;;4962159;28;20053;-88
2022/06/04 01:19:57;;;;;;;2.63;2.25;;;12.10;99.90;;;;;;4962482;28;20055;-88
2022/06/04 01:22:22;;;;;;;1.83;1.67;;;12.00;99.90;;;;;;4963154;28;20058;-87
2022/06/04 01:25:06;;;;;;;2.90;2.28;;;12.10;99.90;;;;;;4963720;28;20405;-88
2022/06/04 01:27:45;;;;;;;3.10;2.90;;;12.00;99.90;;;;;;4962394;28;20445;-86
2022/06/04 01:30:19;;;;;;;5.30;3.25;;;12.00;99.90;;;;;;4962214;28;20493;-87
2022/06/04 01:32:52;;;;;;;3.30;3.00;;;12.00;99.90;;;;;;4963586;28;20243;-87
2022/06/04 01:35:35;;;;;;;6.13;3.75;;;11.90;99.90;;;;;;4963318;28;20077;-87
2022/06/04 01:38:04;;;;;;;;;;;11.90;99.90;;;;;;4962307;28;20553;-87
2022/06/04 01:43:25;;;;;;;2.05;1.95;;;11.90;99.90;;;;;;4962160;28;20460;-86
2022/06/04 01:45:56;;;;;;;5.40;2.67;;;11.90;99.90;;;;;;4962520;28;20418;-87
2022/06/04 01:48:22;;;;;;;6.95;3.65;;;11.90;99.90;;;;;;4981861;28;20121;-87
2022/06/04 01:50:53;;;;;;;4.10;2.55;;;11.80;99.90;;;;;;4982620;28;20096;-87
2022/06/04 01:53:24;;;;;;;2.80;2.60;;;11.80;99.90;;;;;;4982549;28;20061;-88
2022/06/04 01:55:58;;;;;;;5.88;2.97;;;11.80;99.90;;;;;;4981421;28;20397;-87
2022/06/04 01:58:57;;;;;;;8.15;3.15;;;11.80;99.90;;;;;;4981114;28;20042;-86
2022/06/04 02:01:28;;;;;;;4.13;2.72;;;11.80;99.90;;;;;;4980593;28;20058;-86
2022/06/04 02:04:08;;;;;;;13.13;2.85;;;11.80;99.90;;;;;;4981178;28;20078;-87
2022/06/04 02:06:41;;;;;;;2.17;2.08;;;11.70;99.90;;;;;;4964807;28;20042;-87
2022/06/04 02:09:13;;;;;;;3.22;2.92;;;11.70;99.90;;;;;;4982054;28;20097;-86
2022/06/04 02:11:43;;;;;;;2.20;1.95;;;11.70;99.90;;;;;;4982166;28;20130;-87
2022/06/04 02:14:09;;;;;;;2.45;2.15;;;11.70;99.90;;;;;;4981158;28;20482;-88
2022/06/04 02:16:52;;;;;;;3.75;2.67;;;11.70;99.90;;;;;;4980560;28;20086;-87
2022/06/04 02:19:18;;;;;;;4.30;3.58;;;11.70;99.90;;;;;;4983830;28;20081;-86
2022/06/04 02:21:44;;;;;;;5.43;2.42;;;11.70;99.90;;;;;;4986258;28;20416;-87
2022/06/04 02:24:10;;;;;;;4.35;2.72;;;11.70;99.90;;;;;;4985709;28;20050;-87
2022/06/04 02:26:37;;;;;;;3.00;2.70;;;11.60;99.90;;;;;;4985122;28;20043;-87
2022/06/04 02:29:04;;;;;;;3.85;2.65;;;11.70;99.90;;;;;;4985905;28;20042;-87
2022/06/04 02:31:42;;;;;;;3.47;2.92;;;11.60;99.90;;;;;;4985598;28;20133;-88
2022/06/04 02:34:11;;;;;;;3.83;2.45;;;11.60;99.90;;;;;;4985774;28;20070;-87
2022/06/04 02:37:16;;;;;;;4.95;3.28;;;11.60;99.90;;;;;;4984454;28;20049;-85
2022/06/04 02:40:01;;;;;;;5.70;2.88;;;11.60;99.90;;;;;;4968521;28;20540;-86
2022/06/04 02:42:45;;;;;;;5.43;3.15;;;11.60;99.90;;;;;;4985926;28;20046;-87
2022/06/04 02:45:24;;;;;;;3.38;2.45;;;11.60;99.90;;;;;;4983056;28;20042;-87
2022/06/04 02:48:19;;;;;;;5.80;3.80;;;11.60;99.90;;;;;;4985580;28;20520;-86
2022/06/04 02:50:52;;;;;;;8.95;3.65;;;11.60;99.90;;;;;;4968535;28;20054;-87
2022/06/04 02:53:18;;;;;;;4.72;2.38;;;11.60;99.90;;;;;;4985487;28;20632;-88
2022/06/04 02:56:06;;;;;;;8.68;3.45;;;11.50;99.90;;;;;;4984700;28;20069;-87
2022/06/04 02:58:33;;;;;;;3.33;2.95;;;11.50;99.90;;;;;;4983874;28;20097;-87
2022/06/04 03:01:00;;;;;;;3.17;2.70;;;11.50;99.90;;;;;;4983672;28;20668;-87
2022/06/04 03:03:27;;;;;;;4.75;2.83;;;11.50;99.90;;;;;;4985902;28;20551;-88
2022/06/04 03:06:02;;;;;;;3.28;2.90;;;11.40;99.90;;;;;;5000555;28;20038;-87
2022/06/04 03:08:31;;;;;;;2.95;2.75;;;11.50;99.90;;;;;;4985779;28;20232;-87
2022/06/04 03:10:57;;;;;;;7.63;2.70;;;11.40;99.90;;;;;;4985893;28;20050;-87
2022/06/04 03:13:23;;;;;;;4.32;2.45;;;11.40;99.90;;;;;;4983773;28;20137;-87
2022/06/04 03:15:48;;;;;;;3.80;3.25;;;11.50;99.90;;;;;;4984197;28;20125;-87
2022/06/04 03:18:15;;;;;;;6.68;3.13;;;11.40;99.90;;;;;;4984924;28;20089;-85
2022/06/04 03:20:41;;;;;;;5.82;3.03;;;11.50;99.90;;;;;;4985222;28;20047;-87
2022/06/04 03:23:07;;;;;;;2.75;2.55;;;11.50;99.90;;;;;;4984905;28;20120;-86
2022/06/04 03:25:38;;;;;;;3.25;2.67;;;11.40;99.90;;;;;;4985158;28;20054;-87
2022/06/04 03:28:06;;;;;;;3.70;2.67;;;11.50;99.90;;;;;;4984597;28;20117;-87
2022/06/04 03:30:31;;;;;;;4.28;2.95;;;11.50;99.90;;;;;;4983110;28;20094;-87
2022/06/04 03:32:57;;;;;;;5.75;2.58;;;11.50;99.90;;;;;;4984798;28;20173;-87
2022/06/04 03:35:23;;;;;;;3.22;2.30;;;11.50;99.90;;;;;;4984643;28;20089;-87
2022/06/04 03:37:49;;;;;;;3.90;3.17;;;11.50;99.90;;;;;;4983591;28;20046;-87
2022/06/04 03:40:15;;;;;;;6.80;3.35;;;11.40;99.90;;;;;;4983250;28;20116;-87
2022/06/04 03:42:41;;;;;;;4.22;2.10;;;11.40;99.90;;;;;;4984595;28;20038;-86
2022/06/04 03:45:09;;;;;;;2.65;2.22;;;11.40;99.90;;;;;;4983168;28;20057;-86
2022/06/04 03:47:38;;;;;;;2.83;2.42;;;11.40;99.90;;;;;;4971562;28;20042;-87
2022/06/04 03:50:15;;;;;;;3.08;2.47;;;11.40;99.90;;;;;;4964611;28;20054;-88
2022/06/04 03:52:42;;;;;;;2.45;2.25;;;11.40;99.90;;;;;;4965134;28;20051;-88
2022/06/04 03:55:09;;;;;;;2.80;2.25;;;11.40;99.90;;;;;;4963061;28;20046;-86
2022/06/04 04:00:37;;;;;;;4.80;3.60;;;11.40;99.90;;;;;;4963249;28;20046;-87
2022/06/04 04:03:12;;;;;;;2.70;2.45;;;11.30;99.90;;;;;;4963782;28;20054;-88
2022/06/04 04:05:48;;;;;;;6.60;2.83;;;11.40;99.90;;;;;;4964765;28;20555;-87
2022/06/04 04:08:15;;;;;;;3.03;2.72;;;11.40;99.90;;;;;;4964166;28;20470;-87
2022/06/04 04:10:43;;;;;;;7.28;3.28;;;11.30;99.90;;;;;;4964796;28;20050;-87
2022/06/04 04:13:09;;;;;;;6.32;2.65;;;11.40;99.90;;;;;;4964498;28;20050;-87
2022/06/04 04:15:36;;;;;;;9.45;2.45;;;11.40;99.90;;;;;;4963760;28;20042;-87
2022/06/04 04:18:01;;;;;;;3.30;3.03;;;11.40;99.90;;;;;;4963216;28;20093;-87
2022/06/04 04:20:32;;;;;;;7.35;2.85;;;11.40;99.90;;;;;;4964655;28;20038;-87
2022/06/04 04:23:00;;;;;;;4.32;2.50;;;11.40;99.90;;;;;;4964729;28;20070;-87
2022/06/04 04:25:27;;;;;;;3.20;2.47;;;11.40;99.90;;;;;;4964656;28;20089;-86
2022/06/04 04:27:54;;;;;;;3.08;2.75;;;11.40;99.90;;;;;;4963198;28;20397;-87
2022/06/04 04:30:22;;;;;;;2.72;2.53;;;11.50;99.90;;;;;;4962885;28;20053;-87
2022/06/04 04:32:49;;;;;;;3.63;2.90;;;11.50;99.90;;;;;;4964029;28;20105;-86
2022/06/04 04:35:19;;;;;;;3.85;2.65;;;11.50;99.90;;;;;;4964017;28;20905;-86
2022/06/04 04:37:45;;;;;;;6.70;3.00;;;11.60;99.90;;;;;;4964163;28;20053;-88
2022/06/04 04:40:14;;;;;;;3.22;2.92;;;11.60;99.90;;;;;;4964043;28;20038;-88
2022/06/04 04:42:40;;;;;;;2.35;2.03;;;11.60;99.90;;;;;;4962842;28;20058;-88
2022/06/04 04:45:07;;;;;;;5.93;3.00;;;11.70;99.90;;;;;;4962741;28;20039;-88
2022/06/04 04:47:34;;;;;;;9.63;3.45;;;11.70;99.90;;;;;;4976294;28;20046;-87
2022/06/04 04:50:00;;;;;;;6.07;2.67;;;11.70;99.90;;;;;;4982209;28;20042;-87
2022/06/04 04:52:27;;;;;;;5.63;3.30;;;11.80;99.90;;;;;;4984026;28;20456;-87
2022/06/04 04:54:53;;;;;;;6.40;3.38;;;11.80;99.90;;;;;;4981621;28;20053;-87
2022/06/04 04:57:19;;;;;;;3.63;2.38;;;11.80;99.90;;;;;;4982977;28;20400;-87
2022/06/04 04:59:44;;;;;;;2.50;2.30;;;11.80;99.90;;;;;;4981962;28;20519;-86
2022/06/04 05:02:10;;;;;;;3.53;2.42;;;11.90;99.90;;;;;;4982548;28;20042;-86
2022/06/04 05:04:36;;;;;;;2.35;2.15;;;11.90;99.90;;;;;;4982790;28;20798;-86
2022/06/04 05:07:01;;;;;;;2.58;2.38;;;11.90;99.90;;;;;;4982804;28;20049;-87
2022/06/04 05:09:27;;;;;;;2.63;2.30;;;11.90;99.90;;;;;;4983333;28;20058;-87
2022/06/04 05:11:53;;;;;;;2.17;1.98;;;12.00;99.90;;;;;;4982056;28;20527;-87
2022/06/04 05:14:19;;;;;;;4.38;2.83;;;12.00;99.90;;;;;;4981695;28;20403;-87
2022/06/04 05:16:46;;;;;;;3.38;2.85;;;12.10;99.90;;;;;;4982798;28;20050;-87
2022/06/04 05:19:11;;;;;;;3.13;2.47;;;12.10;99.90;;;;;;4982164;28;20135;-87
2022/06/04 05:21:44;;;;;;;2.10;1.90;;;12.10;99.90;;;;;;4982909;28;20165;-87
2022/06/04 05:24:16;;;;;;;3.00;2.42;;;12.10;99.90;;;;;;4982753;28;20049;-86
2022/06/04 05:26:41;;;;;;;2.35;2.15;;;12.20;99.90;;;;;;4982814;28;20126;-87
2022/06/04 05:29:07;;;;;;;2.95;1.65;;;12.20;99.90;;;;;;4982161;28;20133;-81
2022/06/04 05:31:33;;;;;;;2.38;1.77;;;12.20;99.90;;;;;;4981832;28;20130;-86
2022/06/04 05:33:58;;;;;;;2.85;1.70;;;12.20;99.90;;;;;;4982798;28;20077;-87
2022/06/04 05:36:24;;;;;;;2.05;1.95;;;12.30;99.90;;;;;;4982239;28;20046;-87
2022/06/04 05:38:50;;;;;;;2.58;2.38;;;12.30;99.90;;;;;;4982510;28;20086;-86
2022/06/04 05:41:15;;;;;;;4.45;2.03;;;12.30;99.90;;;;;;4982397;28;20081;-86
2022/06/04 05:43:41;;;;;;;3.75;1.80;;;12.40;99.90;;;;;;4982345;28;20526;-87
2022/06/04 05:46:10;;;;;;;3.72;2.72;;;12.40;99.90;;;;;;4979975;28;20050;-86
2022/06/04 05:48:38;;;;;;;2.38;1.75;;;12.40;99.90;;;;;;4963177;28;20533;-88
2022/06/04 05:51:04;;;;;;;4.82;1.77;;;12.50;99.90;;;;;;4962980;28;20047;-87
2022/06/04 05:53:30;;;;;;;2.20;2.00;;;12.50;99.90;;;;;;4963134;28;20050;-87
2022/06/04 05:55:55;;;;;;;2.25;1.90;;;12.50;99.90;;;;;;4962054;28;20050;-87
2022/06/04 05:58:21;;;;;;;3.95;2.20;;;12.50;99.90;;;;;;4962668;28;20061;-87
2022/06/04 06:00:47;;;;;;;2.05;1.85;;;12.50;99.90;;;;;;4961264;28;20043;-87
2022/06/04 06:03:13;;;;;;;2.75;2.33;;;12.60;99.90;;;;;;4962370;28;20457;-87
2022/06/04 06:05:45;;;;;;;2.30;1.98;;;12.60;99.90;;;;;;4968078;28;20046;-86
2022/06/04 06:08:12;;;;;;;3.92;2.20;;;12.60;99.90;;;;;;4967173;28;20549;-88
2022/06/04 06:10:39;;;;;;;2.08;1.88;;;12.60;99.90;;;;;;4962376;28;20129;-87
2022/06/04 06:13:05;;;;;;;2.22;2.03;;;12.70;99.90;;;;;;4961770;28;20043;-86
2022/06/04 06:15:31;;;;;;;2.97;2.33;;;12.70;99.90;;;;;;4970818;28;20042;-91
2022/06/04 06:17:57;;;;;;;3.75;2.22;;;12.70;99.90;;;;;;4980333;28;20050;-86
2022/06/04 06:20:22;;;;;;;3.47;2.35;;;12.80;99.90;;;;;;4982179;28;20403;-87
2022/06/04 06:22:48;;;;;;;1.73;1.63;;;12.80;99.90;;;;;;4982066;28;20042;-87
2022/06/04 06:25:13;;;;;;;1.63;1.52;;;12.90;99.90;;;;;;4981857;28;20038;-87
2022/06/04 06:27:39;;;;;;;1.88;1.77;;;12.90;99.90;;;;;;4982095;28;20053;-87
2022/06/04 06:30:05;;;;;;;2.88;2.45;;;13.00;99.90;;;;;;4980660;28;20046;-88
2022/06/04 06:32:31;;;;;;;4.35;2.13;;;13.00;99.90;;;;;;4981752;28;20097;-85
2022/06/04 06:34:56;;;;;;;4.63;2.22;;;13.00;99.90;;;;;;4982185;28;20042;-88
2022/06/04 06:37:22;;;;;;;2.78;2.40;;;13.10;99.90;;;;;;4980200;28;20050;-87
2022/06/04 06:39:48;;;;;;;4.20;2.53;;;13.10;99.90;;;;;;4982108;28;20074;-86
2022/06/04 06:42:13;;;;;;;6.53;1.95;;;13.20;99.90;;;;;;4982283;28;20586;-86
2022/06/04 06:44:39;;;;;;;1.80;1.67;;;13.20;99.90;;;;;;4980970;28;20042;-84
2022/06/04 06:47:05;;;;;;;5.05;1.77;;;13.30;99.90;;;;;;4975141;28;20042;-82
2022/06/04 06:49:31;;;;;;;5.00;2.60;;;13.30;99.90;;;;;;4969918;28;20062;-82
2022/06/04 06:52:02;;;;;;;1.73;1.63;;;13.30;99.90;;;;;;4972275;28;20471;-84
2022/06/04 06:54:36;;;;;;;2.13;1.95;;;13.40;99.90;;;;;;4971770;28;20046;-86
2022/06/04 06:57:07;;;;;;;2.72;1.85;;;13.40;99.90;;;;;;4970696;28;20054;-86
2022/06/04 06:59:34;;;;;;;2.47;1.85;;;13.40;99.90;;;;;;4965591;28;20536;-86
2022/06/04 07:02:00;;;;;;;1.85;1.75;;;13.40;99.90;;;;;;4979379;28;20133;-86
2022/06/04 07:04:27;;;;;;;2.33;2.08;;;13.40;99.90;;;;;;4981111;28;20061;-86
2022/06/04 07:06:57;;;;;;;2.03;1.80;;;13.40;99.90;;;;;;4985180;28;20098;-87
2022/06/04 07:09:35;;;;;;;2.90;1.65;;;13.50;99.90;;;;;;4967426;28;20061;-85
2022/06/04 07:12:02;;;;;;;1.83;1.73;;;13.50;99.90;;;;;;4985464;28;20046;-84
2022/06/04 07:14:28;;;;;;;2.72;2.05;;;13.50;99.90;;;;;;4983726;28;20064;-84
2022/06/04 07:16:55;;;;;;;2.75;2.10;;;13.50;99.90;;;;;;4985039;28;20038;-86
2022/06/04 07:19:22;;;;;;;2.88;2.60;;;13.50;99.90;;;;;;4984798;28;20523;-86
2022/06/04 07:21:49;;;;;;;1.85;1.75;;;13.60;99.90;;;;;;4984544;28;20077;-85
2022/06/04 07:24:15;;;;;;;6.53;2.55;;;13.60;99.90;;;;;;4984645;28;20046;-86
2022/06/04 07:26:42;;;;;;;1.67;1.42;;;13.60;99.90;;;;;;4984595;28;20096;-86
2022/06/04 07:29:09;;;;;;;2.85;2.00;;;13.60;99.90;;;;;;4998915;28;20125;-80
2022/06/04 07:31:35;;;;;;;7.57;2.33;;;13.70;99.90;;;;;;4984589;28;20126;-85
2022/06/04 07:34:00;;;;;;;2.30;1.70;;;13.70;99.90;;;;;;4984533;28;20489;-83
2022/06/04 07:36:29;;;;;;;3.63;2.10;;;13.70;99.90;;;;;;4984772;28;20043;-85
2022/06/04 07:38:56;;;;;;;2.15;1.95;;;13.70;99.90;;;;;;4982493;28;20137;-85
2022/06/04 07:41:31;;;;;;;4.57;1.92;;;13.70;99.90;;;;;;4982629;28;20508;-85
2022/06/04 07:43:58;;;;;;;2.47;1.70;;;13.70;99.90;;;;;;4983093;28;20052;-86
2022/06/04 07:46:26;;;;;;;3.40;3.10;;;13.80;99.90;;;;;;4981022;28;20039;-84
2022/06/04 07:49:00;;;;;;;2.97;2.35;;;13.80;99.90;;;;;;4964972;28;20090;-85
2022/06/04 07:51:27;;;;;;;2.97;1.90;;;13.80;99.90;;;;;;4963765;28;20050;-85
2022/06/04 07:53:52;;;;;;;3.50;2.50;;;13.80;99.90;;;;;;4964929;28;20038;-85
2022/06/04 07:56:19;;;;;;;3.08;1.77;;;13.80;99.90;;;;;;4964396;28;20117;-85
2022/06/04 07:58:46;;;;;;;2.72;1.60;;;13.80;99.90;;;;;;4963981;28;20050;-81
2022/06/04 08:01:14;;;;;;;2.88;1.80;;;13.90;99.90;;;;;;4964084;28;20521;-85
2022/06/04 08:03:42;;;;;;;1.75;1.65;;;13.90;99.90;;;;;;4964270;28;20049;-85
2022/06/04 08:06:07;;;;;;;2.03;1.65;;;13.90;99.90;;;;;;4963154;28;20050;-85
2022/06/04 08:08:34;;;;;;;2.70;2.25;;;14.00;99.90;;;;;;4964507;28;20053;-85
2022/06/04 08:11:00;;;;;;;5.00;2.45;;;14.00;99.90;;;;;;4963859;28;20472;-85
2022/06/04 08:13:28;;;;;;;5.13;2.22;;;14.00;99.90;;;;;;4963603;28;20042;-85
2022/06/04 08:15:55;;;;;;;2.80;2.25;;;14.00;99.90;;;;;;4963098;28;20497;-85
2022/06/04 08:18:20;;;;;;;1.92;1.45;;;14.00;99.90;;;;;;4964113;28;20094;-85
2022/06/04 08:20:46;;;;;;;2.70;2.00;;;14.10;99.90;;;;;;4964273;28;20798;-85
2022/06/04 08:23:13;;;;;;;1.15;1.15;;;14.10;99.90;;;;;;4964232;28;20492;-85
2022/06/04 08:25:40;;;;;;;1.88;1.65;;;14.10;99.90;;;;;;4962792;28;20051;-85
2022/06/04 08:28:06;;;;;;;5.25;2.22;;;14.10;99.90;;;;;;4964317;28;20081;-85
2022/06/04 08:30:32;;;;;;;2.65;2.03;;;14.20;99.90;;;;;;4963482;28;20035;-85
2022/06/04 08:32:57;;;;;;;1.50;1.40;;;14.20;99.90;;;;;;4964295;28;20043;-85
2022/06/04 08:35:23;;;;;;;2.05;1.67;;;14.20;99.90;;;;;;4963937;28;20538;-85
2022/06/04 08:37:49;;;;;;;1.25;1.15;;;14.10;99.90;;;;;;4962625;28;20093;-85
2022/06/04 08:40:45;;;;;;;2.92;1.90;;;14.10;99.90;;;;;;4964044;28;20050;-85
2022/06/04 08:43:36;;;;;;;2.55;1.45;;;14.10;99.90;;;;;;4961825;28;20150;-85
2022/06/04 08:46:07;;;;;;;3.17;1.83;;;14.00;99.90;;;;;;4963321;28;20051;-85
2022/06/04 08:48:37;;;;;;;9.23;1.83;;;14.00;99.90;;;;;;4983312;28;20042;-85
2022/06/04 08:51:11;;;;;;;5.72;2.25;;;14.00;99.90;;;;;;4981402;28;20309;-85
2022/06/04 08:53:36;;;;;;;6.45;1.92;;;14.00;99.90;;;;;;4983090;28;20046;-85
2022/06/04 08:59:17;;;;;;;2.33;2.08;;;14.00;99.90;;;;;;4980193;28;20339;-85
2022/06/04 09:01:57;;;;;;;2.28;2.03;;;14.10;99.90;;;;;;4982881;28;20141;-85
2022/06/04 09:04:51;;;;;;;3.40;1.75;;;14.10;99.90;;;;;;4982342;28;20609;-85
2022/06/04 09:07:20;;;;;;;3.20;1.70;;;14.20;99.90;;;;;;4981429;28;20370;-85
2022/06/04 09:09:57;;;;;;;4.03;2.47;;;14.20;99.90;;;;;;4980933;28;20081;-84
2022/06/04 09:12:28;;;;;;;1.80;1.70;;;14.30;99.90;;;;;;4981161;28;20050;-85
2022/06/04 09:15:22;;;;;;;1.73;1.63;;;14.30;99.90;;;;;;4982360;28;20046;-86
2022/06/04 09:17:53;;;;;;;5.53;2.25;;;14.40;99.90;;;;;;4983031;28;20058;-85
2022/06/04 09:20:31;;;;;;;6.83;1.90;;;14.50;99.90;;;;;;4981041;28;20050;-86
2022/06/04 09:23:22;;;;;;;2.67;1.58;;;14.60;99.90;;;;;;4981583;28;20803;-86
2022/06/04 09:26:01;;;;;;;1.73;1.50;;;14.60;99.90;;;;;;4982854;28;20054;-85
2022/06/04 09:28:57;;;;;;;2.22;1.73;;;14.60;99.90;;;;;;4977712;28;20049;-86
2022/06/04 09:31:43;;;;;;;1.77;1.65;;;14.70;99.90;;;;;;4970157;28;20137;-86
2022/06/04 09:34:16;;;;;;;2.33;1.48;;;14.70;99.90;;;;;;4980163;28;20054;-85
2022/06/04 09:36:46;;;;;;;1.77;1.63;;;14.70;99.90;;;;;;4981967;28;20125;-85
2022/06/04 09:39:22;;;;;;;3.30;2.28;;;14.80;99.90;;;;;;4981956;28;20061;-86
2022/06/04 09:42:04;;;;;;;2.67;2.22;;;14.90;99.90;;;;;;4981742;28;20050;-87
2022/06/04 09:44:31;;;;;;;3.80;2.03;;;14.90;99.90;;;;;;4980592;28;20424;-87
2022/06/04 09:47:08;;;;;;;9.55;2.00;;;14.90;99.90;;;;;;4982517;28;20053;-87
2022/06/04 09:49:44;;;;;;;2.08;1.40;;;14.90;99.90;;;;;;4981457;28;20469;-85
2022/06/04 09:52:34;;;;;;;2.55;1.73;;;15.00;99.90;;;;;;4965924;28;20466;-86
2022/06/04 09:55:13;;;;;;;1.70;1.60;;;14.90;99.90;;;;;;4980733;28;20073;-86
2022/06/04 09:57:39;;;;;;;1.52;1.42;;;15.00;99.90;;;;;;4982502;28;20042;-87
2022/06/04 10:00:22;;;;;;;1.80;1.70;;;15.00;99.90;;;;;;4979724;28;20120;-87
2022/06/04 10:03:01;;;;;;;1.70;1.60;;;15.00;99.90;;;;;;4980722;28;20097;-87
2022/06/04 10:05:30;;;;;;;1.77;1.23;;;15.00;99.90;;;;;;4981551;28;20179;-87
2022/06/04 10:07:56;;;;;;;2.38;1.48;;;15.00;99.90;;;;;;4982409;28;20037;-87
2022/06/04 10:10:28;;;;;;;3.22;1.80;;;15.00;99.90;;;;;;4982309;28;20042;-86
2022/06/04 10:15:47;;;;;;;1.73;1.30;;;15.00;99.90;;;;;;4968627;28;20046;-87
2022/06/04 10:18:31;;;;;;;1.05;1.05;;;15.00;99.90;;;;;;4982191;28;20042;-86
2022/06/04 10:21:06;;;;;;;1.80;1.70;;;15.00;99.90;;;;;;4977132;28;20038;-86
2022/06/04 10:23:47;;;;;;;0.98;0.95;;;15.00;99.90;;;;;;4976917;28;20513;-86
2022/06/04 10:26:23;;;;;;;2.78;1.63;;;15.00;99.90;;;;;;4990756;28;20039;-85
2022/06/04 10:29:19;;;;;;;1.80;1.70;;;15.00;99.90;;;;;;4964132;28;20082;-85
2022/06/04 10:31:53;;;;;;;2.42;1.67;;;15.00;99.90;;;;;;4981270;28;20089;-85
2022/06/04 10:34:47;;;;;;;1.88;1.75;;;15.00;99.90;;;;;;4979363;28;20121;-85
2022/06/04 10:37:29;;;;;;;1.75;1.65;;;15.00;99.90;;;;;;4975549;28;20050;-83
2022/06/04 10:40:04;;;;;;;;;;;15.00;99.90;;;;;;4970841;28;20053;-88
2022/06/04 10:42:59;;;;;;;1.95;1.83;;;15.00;99.90;;;;;;4977411;28;20298;-90
2022/06/04 10:45:54;;;;;;;2.97;2.20;;;15.10;99.90;;;;;;4967236;28;20047;-85
2022/06/04 10:48:42;;;;;;;4.30;2.47;;;15.10;99.90;;;;;;4968463;28;20054;-88
2022/06/04 10:51:28;;;;;;;1.85;1.60;;;15.10;99.90;;;;;;4976483;28;20567;-89
2022/06/04 10:54:14;;;;;;;2.33;1.73;;;15.10;99.90;;;;;;4972236;28;20086;-90
2022/06/04 10:56:47;;;;;;;3.42;1.70;;;15.10;99.90;;;;;;4967010;28;20043;-89
2022/06/04 10:59:13;;;;;;;2.72;2.53;;;15.10;99.90;;;;;;4966167;28;20054;-91
2022/06/04 11:01:43;;;;;;;1.98;1.80;;;15.20;99.90;;;;;;4981936;28;20096;-82
2022/06/04 11:04:31;;;;;;;2.58;1.52;;;15.20;99.90;;;;;;4967322;28;20093;-87
2022/06/04 11:07:10;;;;;;;5.80;2.42;;;15.20;99.90;;;;;;4965130;28;20058;-86
2022/06/04 11:09:40;;;;;;;1.90;1.75;;;15.20;99.90;;;;;;4964576;28;20051;-86
2022/06/04 11:12:44;;;;;;;1.67;1.52;;;15.20;99.90;;;;;;4965638;28;20122;-87
2022/06/04 11:15:17;;;;;;;3.35;1.42;;;15.10;99.90;;;;;;4963295;28;20053;-86
2022/06/04 11:18:03;;;;;;;3.30;1.70;;;15.10;99.90;;;;;;4965561;28;20051;-85
2022/06/04 11:20:38;;;;;;;2.67;1.40;;;15.10;99.90;;;;;;4948857;28;20043;-86
2022/06/04 11:23:18;;;;;;;3.72;1.75;;;15.20;99.90;;;;;;4965263;28;20109;-86
2022/06/04 11:25:48;;;;;;;2.67;1.60;;;15.20;99.90;;;;;;4969258;28;20061;-82
2022/06/04 11:28:27;;;;;;;4.03;1.75;;;15.20;99.90;;;;;;4964296;28;20046;-84
2022/06/04 11:31:14;;;;;;;2.00;1.40;;;15.30;99.90;;;;;;4975239;28;20074;-82
2022/06/04 11:33:54;;;;;;;8.88;2.22;;;15.30;99.90;;;;;;4985065;28;20054;-81
2022/06/04 11:36:28;;;;;;;3.53;2.33;;;15.30;99.90;;;;;;4984385;28;20141;-83
2022/06/04 11:39:05;;;;;;;1.42;1.33;;;15.40;99.90;;;;;;4983672;28;20073;-84
2022/06/04 11:41:37;;;;;;;2.67;1.75;;;15.40;99.90;;;;;;4983366;28;20077;-81
2022/06/04 11:44:40;;;;;;;3.03;1.77;;;15.40;99.90;;;;;;4971212;28;20042;-89
2022/06/04 11:47:33;;;;;;;3.15;2.33;;;15.50;99.90;;;;;;4968142;28;20051;-88
2022/06/04 11:50:17;;;;;;;2.45;2.25;;;15.50;99.90;;;;;;4990742;28;20053;-85
2022/06/04 11:52:59;;;;;;;3.45;1.75;;;15.50;99.90;;;;;;4995958;28;20050;-86
2022/06/04 11:56:11;;;;;;;3.00;1.27;;;15.60;99.90;;;;;;4975492;28;20043;-86
2022/06/04 11:59:06;;;;;;;2.17;2.00;;;15.60;99.90;;;;;;4942509;28;20057;-86
2022/06/04 12:01:43;;;;;;;3.67;2.65;;;15.60;99.90;;;;;;4974232;28;20555;-85
2022/06/04 12:04:16;;;;;;;1.92;1.83;;;15.60;99.90;;;;;;4975719;28;20053;-85
2022/06/04 12:06:53;;;;;;;7.32;1.58;;;15.50;99.90;;;;;;4971691;28;20205;-87
2022/06/04 12:09:43;;;;;;;3.03;1.95;;;15.50;99.90;;;;;;4975834;28;20061;-82
2022/06/04 12:12:16;;;;;;;2.22;1.95;;;15.50;99.90;;;;;;4994159;28;20091;-83
2022/06/04 12:14:56;;;;;;;2.65;2.45;;;15.50;99.90;;;;;;4976009;28;20545;-83
2022/06/04 12:17:46;;;;;;;3.25;2.42;;;15.50;99.90;;;;;;4973307;28;20076;-85
2022/06/04 12:26:24;;;;;;;2.05;1.58;;;15.70;99.90;;;;;;4962931;28;20102;-83
2022/06/04 12:28:51;;;;;;;1.50;1.40;;;15.70;99.90;;;;;;4962353;28;20446;-84
2022/06/04 12:31:34;;;;;;;2.90;1.73;;;15.70;99.90;;;;;;4967488;28;20115;-87
2022/06/04 12:34:02;;;;;;;2.05;1.92;;;15.70;99.90;;;;;;4974090;28;20054;-88
2022/06/04 12:36:37;;;;;;;1.80;1.70;;;15.80;99.90;;;;;;4975393;28;20035;-88
2022/06/04 12:39:28;;;;;;;3.30;2.75;;;15.70;99.90;;;;;;4976217;28;20046;-87
2022/06/04 12:41:59;;;;;;;3.67;1.75;;;15.70;99.90;;;;;;4967705;28;20055;-83
2022/06/04 12:44:31;;;;;;;2.97;2.35;;;15.70;99.90;;;;;;4966895;28;20101;-85
2022/06/04 12:47:19;;;;;;;3.93;2.37;;;15.80;99.90;;;;;;4971180;28;20125;-87
2022/06/04 12:49:52;;;;;;;3.35;2.15;;;15.70;99.90;;;;;;4977384;28;20343;-87
2022/06/04 12:52:27;;;;;;;3.35;2.53;;;15.70;99.90;;;;;;4969465;28;20066;-87
2022/06/04 12:55:23;;;;;;;6.32;2.78;;;15.70;99.90;;;;;;4976726;28;20494;-84
2022/06/04 12:57:56;;;;;;;2.83;2.58;;;15.70;99.90;;;;;;4982826;28;20045;-85
2022/06/04 13:00:24;;;;;;;3.10;2.80;;;15.80;99.90;;;;;;4982525;28;20054;-84
2022/06/04 13:02:58;;;;;;;3.13;2.42;;;15.80;99.90;;;;;;4981666;28;20046;-83
2022/06/04 13:05:25;;;;;;;2.55;2.35;;;15.80;99.90;;;;;;4982810;28;20186;-85
2022/06/04 13:08:12;;;;;;;2.58;2.05;;;15.80;99.90;;;;;;4982845;28;20061;-85
2022/06/04 13:10:57;;;;;;;3.75;1.98;;;15.80;99.90;;;;;;4983001;28;20073;-86
2022/06/04 13:13:50;;;;;;;7.30;2.10;;;15.80;99.90;;;;;;4970595;28;20047;-88
2022/06/04 13:16:21;;;;;;;7.22;2.17;;;15.90;99.90;;;;;;4983712;28;20042;-83
2022/06/04 13:19:09;;;;;;;3.17;2.83;;;15.90;99.90;;;;;;4972308;28;20333;-81
2022/06/04 13:21:45;;;;;;;3.03;1.80;;;15.90;99.90;;;;;;4974056;28;20054;-81
2022/06/04 13:24:24;;;;;;;4.53;1.98;;;16.00;99.90;;;;;;4970867;28;20408;-81
2022/06/04 13:27:01;;;;;;;8.38;2.22;;;16.00;99.90;;;;;;4972403;28;20495;-83
2022/06/04 13:29:36;;;;;;;7.95;2.92;;;15.90;99.90;;;;;;4978631;28;20089;-84
2022/06/04 13:32:10;;;;;;;3.75;2.47;;;16.00;99.90;;;;;;4962803;28;20485;-81
2022/06/04 13:34:36;;;;;;;4.88;2.17;;;16.00;99.90;;;;;;4964961;28;20035;-85
2022/06/04 13:37:21;;;;;;;2.67;2.20;;;16.00;99.90;;;;;;4981096;28;20099;-84
2022/06/04 13:39:48;;;;;;;4.28;2.28;;;16.10;99.90;;;;;;4967424;28;20660;-85